createdAt,value
2018-04-11T00:01:32.498Z,14.27
2018-04-11T00:04:00.908Z,14.40
2018-04-11T00:06:29.292Z,14.20
2018-04-11T00:08:58.465Z,16.15
2018-04-11T00:11:26.876Z,14.35
2018-04-11T00:13:56.084Z,14.60
2018-04-11T00:16:24.470Z,14.82
2018-04-11T00:18:52.868Z,16.35
2018-04-11T00:21:21.285Z,16.95
2018-04-11T00:23:49.677Z,15.00
2018-04-11T00:26:18.089Z,17.10
2018-04-11T00:28:46.486Z,16.00
2018-04-11T00:31:15.309Z,16.15
2018-04-11T00:33:43.717Z,16.17
2018-04-11T00:36:12.877Z,18.10
2018-04-11T00:38:41.281Z,17.30
2018-04-11T00:41:10.437Z,16.37
2018-04-11T00:43:38.848Z,16.50
2018-04-11T00:46:07.361Z,17.58
2018-04-11T00:48:35.981Z,19.35
2018-04-11T00:51:04.366Z,17.98
2018-04-11T00:53:32.765Z,18.25
2018-04-11T00:56:01.217Z,19.33
2018-04-11T00:58:29.594Z,17.60
2018-04-11T01:00:58.012Z,20.12
2018-04-11T01:03:26.398Z,19.35
2018-04-11T01:05:55.577Z,18.52
2018-04-11T01:08:23.981Z,20.27
2018-04-11T01:10:52.377Z,20.75
2018-04-11T01:13:20.787Z,21.42
2018-04-11T01:15:49.174Z,20.45
2018-04-11T01:18:17.586Z,19.98
2018-04-11T01:20:46.772Z,22.17
2018-04-11T01:23:15.194Z,22.15
2018-04-11T01:25:43.575Z,20.73
2018-04-11T01:28:11.961Z,20.65
2018-04-11T01:30:40.425Z,19.50
2018-04-11T01:33:08.817Z,20.62
2018-04-11T01:35:37.220Z,19.80
2018-04-11T01:38:05.602Z,19.67
2018-04-11T01:40:34.034Z,20.20
2018-04-11T01:43:02.433Z,19.50
2018-04-11T01:45:30.840Z,18.85
2018-04-11T01:47:59.258Z,19.95
2018-04-11T01:50:28.412Z,17.70
2018-04-11T01:52:56.816Z,16.65
2018-04-11T01:55:25.198Z,18.17
2018-04-11T01:57:54.211Z,18.50
2018-04-11T02:00:24.163Z,18.70
2018-04-11T02:02:52.565Z,18.98
2018-04-11T02:05:21.002Z,19.25
2018-04-11T02:07:49.383Z,19.17
2018-04-11T02:10:17.809Z,18.35
2018-04-11T02:12:46.204Z,18.05
2018-04-11T02:15:14.857Z,18.30
2018-04-11T02:17:43.246Z,19.98
2018-04-11T02:20:11.633Z,18.40
2018-04-11T02:22:40.048Z,19.90
2018-04-11T02:25:08.693Z,18.90
2018-04-11T02:27:37.121Z,18.65
2018-04-11T02:30:05.504Z,19.95
2018-04-11T02:32:34.212Z,19.70
2018-04-11T02:35:02.609Z,19.37
2018-04-11T02:37:31.131Z,19.23
2018-04-11T02:40:00.370Z,22.13
2018-04-11T02:42:28.776Z,19.27
2018-04-11T02:44:57.217Z,18.55
2018-04-11T02:47:25.602Z,19.77
2018-04-11T02:49:54.298Z,20.90
2018-04-11T02:52:22.694Z,19.85
2018-04-11T02:54:51.077Z,20.50
2018-04-11T02:57:19.527Z,20.90
2018-04-11T02:59:47.909Z,22.13
2018-04-11T03:02:16.316Z,23.25
2018-04-11T03:04:44.706Z,20.77
2018-04-11T03:07:13.133Z,21.48
2018-04-11T03:09:41.519Z,21.73
2018-04-11T03:12:09.905Z,20.60
2018-04-11T03:14:38.313Z,23.62
2018-04-11T03:17:06.702Z,20.52
2018-04-11T03:19:35.112Z,20.27
2018-04-11T03:22:03.496Z,20.62
2018-04-11T03:24:32.146Z,20.60
2018-04-11T03:27:01.298Z,20.15
2018-04-11T03:29:29.680Z,19.83
2018-04-11T03:31:58.089Z,19.55
2018-04-11T03:34:26.481Z,20.12
2018-04-11T03:36:55.672Z,20.33
2018-04-11T03:39:24.828Z,18.55
2018-04-11T03:41:53.410Z,19.95
2018-04-11T03:44:21.798Z,22.60
2018-04-11T03:46:50.177Z,19.58
2018-04-11T03:49:18.584Z,19.02
2018-04-11T03:51:46.965Z,19.12
2018-04-11T03:54:15.377Z,20.10
2018-04-11T03:56:43.765Z,20.80
2018-04-11T03:59:12.173Z,20.25
2018-04-11T04:01:40.573Z,21.12
2018-04-11T04:04:09.783Z,19.92
2018-04-11T04:06:38.934Z,20.52
2018-04-11T04:09:07.329Z,20.52
2018-04-11T04:11:35.754Z,20.90
2018-04-11T04:14:22.643Z,20.80
2018-04-11T04:17:08.924Z,22.58
2018-04-11T04:19:49.288Z,23.70
2018-04-11T04:22:17.688Z,23.48
2018-04-11T04:24:46.836Z,19.52
2018-04-11T04:27:15.772Z,20.62
2018-04-11T04:29:45.366Z,19.27
2018-04-11T04:32:17.441Z,18.42
2018-04-11T04:34:47.239Z,18.35
2018-04-11T04:37:16.269Z,19.75
2018-04-11T04:39:45.253Z,19.17
2018-04-11T04:42:14.826Z,17.45
2018-04-11T04:44:44.601Z,18.12
2018-04-11T04:47:13.694Z,19.37
2018-04-11T04:49:48.593Z,17.67
2018-04-11T04:52:18.303Z,17.35
2018-04-11T04:54:47.526Z,15.68
2018-04-11T04:57:16.057Z,17.58
2018-04-11T04:59:44.441Z,17.75
2018-04-11T05:02:12.840Z,16.85
2018-04-11T05:04:41.989Z,15.52
2018-04-11T05:07:10.389Z,15.50
2018-04-11T05:09:38.774Z,19.40
2018-04-11T05:12:07.200Z,16.52
2018-04-11T05:14:35.614Z,16.80
2018-04-11T05:17:04.806Z,14.25
2018-04-11T05:19:33.223Z,14.18
2018-04-11T05:22:02.936Z,14.63
2018-04-11T05:24:32.137Z,15.35
2018-04-11T05:27:01.314Z,16.20
2018-04-11T05:29:29.969Z,13.10
2018-04-11T05:31:58.364Z,13.57
2018-04-11T05:34:26.754Z,12.65
2018-04-11T05:36:55.604Z,13.38
2018-04-11T05:39:23.993Z,14.35
2018-04-11T05:41:52.427Z,13.48
2018-04-11T05:44:21.625Z,15.18
2018-04-11T05:46:50.809Z,15.10
2018-04-11T05:49:20.174Z,15.75
2018-04-11T05:51:48.557Z,14.73
2018-04-11T05:54:16.962Z,16.00
2018-04-11T05:56:45.394Z,15.95
2018-04-11T05:59:13.825Z,17.85
2018-04-11T06:01:42.212Z,16.70
2018-04-11T06:04:11.685Z,17.00
2018-04-11T06:06:40.072Z,17.10
2018-04-11T06:09:08.462Z,17.65
2018-04-11T06:11:37.662Z,16.08
2018-04-11T06:14:06.131Z,20.15
2018-04-11T06:16:35.329Z,17.00
2018-04-11T06:19:03.813Z,16.10
2018-04-11T06:21:32.573Z,17.73
2018-04-11T06:24:00.965Z,16.37
2018-04-11T06:26:30.145Z,16.40
2018-04-11T06:28:58.552Z,18.37
2018-04-11T06:31:27.564Z,14.80
2018-04-11T06:33:56.749Z,16.00
2018-04-11T06:36:25.935Z,16.75
2018-04-11T06:38:54.415Z,16.77
2018-04-11T06:41:22.806Z,14.35
2018-04-11T06:43:51.982Z,13.93
2018-04-11T06:46:21.066Z,14.35
2018-04-11T06:48:49.459Z,13.32
2018-04-11T06:51:18.682Z,13.82
2018-04-11T06:53:47.852Z,12.77
2018-04-11T06:56:16.289Z,12.05
2018-04-11T06:58:44.677Z,10.63
2018-04-11T07:01:13.080Z,10.63
2018-04-11T07:03:41.485Z,9.20
2018-04-11T07:06:10.648Z,7.22
2018-04-11T07:08:39.868Z,8.05
2018-04-11T07:11:08.262Z,7.65
2018-04-11T07:13:38.214Z,10.15
2018-04-11T07:16:08.200Z,8.15
2018-04-11T07:18:37.386Z,6.72
2018-04-11T07:21:05.788Z,7.10
2018-04-11T07:23:34.945Z,6.97
2018-04-11T07:26:03.389Z,7.32
2018-04-11T07:28:31.768Z,5.82
2018-04-11T07:31:00.177Z,6.87
2018-04-11T07:33:28.558Z,6.05
2018-04-11T07:35:57.240Z,5.78
2018-04-11T07:38:25.626Z,6.05
2018-04-11T07:40:54.017Z,5.10
2018-04-11T07:43:22.419Z,5.80
2018-04-11T07:45:51.566Z,6.00
2018-04-11T07:48:20.021Z,5.18
2018-04-11T07:50:48.410Z,5.57
2018-04-11T07:53:16.832Z,4.07
2018-04-11T07:55:45.216Z,4.45
2018-04-11T07:58:14.383Z,3.30
2018-04-11T08:00:42.806Z,3.20
2018-04-11T08:03:11.983Z,3.20
2018-04-11T08:05:41.175Z,2.70
2018-04-11T08:08:09.557Z,3.13
2018-04-11T08:10:38.163Z,3.67
2018-04-11T08:13:07.330Z,3.60
2018-04-11T08:15:35.722Z,3.60
2018-04-11T08:18:04.906Z,3.83
2018-04-11T08:20:33.311Z,4.13
2018-04-11T08:23:02.482Z,3.13
2018-04-11T08:25:30.860Z,3.93
2018-04-11T08:28:00.776Z,2.63
2018-04-11T08:30:29.231Z,2.97
2018-04-11T08:32:57.636Z,4.03
2018-04-11T08:35:26.026Z,4.50
2018-04-11T08:37:55.201Z,5.10
2018-04-11T08:40:23.588Z,7.30
2018-04-11T08:42:51.990Z,6.03
2018-04-11T08:45:21.139Z,5.60
2018-04-11T08:47:49.822Z,4.63
2018-04-11T08:50:18.209Z,5.50
2018-04-11T08:52:46.589Z,4.60
2018-04-11T08:55:14.989Z,5.17
2018-04-11T08:57:43.385Z,5.00
2018-04-11T09:00:12.562Z,4.53
2018-04-11T09:02:40.948Z,4.67
2018-04-11T09:05:09.348Z,4.03
2018-04-11T09:07:38.501Z,4.40
2018-04-11T09:10:06.973Z,4.60
2018-04-11T09:12:35.354Z,3.70
2018-04-11T09:15:03.781Z,5.07
2018-04-11T09:17:32.929Z,4.90
2018-04-11T09:20:01.349Z,5.10
2018-04-11T09:22:30.492Z,3.97
2018-04-11T09:24:58.883Z,5.27
2018-04-11T09:27:27.289Z,4.87
2018-04-11T09:29:55.670Z,5.10
2018-04-11T09:32:24.093Z,4.60
2018-04-11T09:34:52.513Z,4.40
2018-04-11T09:37:21.484Z,5.47
2018-04-11T09:39:49.881Z,5.70
2018-04-11T09:42:18.297Z,5.07
2018-04-11T09:44:47.457Z,3.90
2018-04-11T09:47:15.878Z,6.77
2018-04-11T09:49:45.069Z,4.13
2018-04-11T09:52:14.229Z,4.30
2018-04-11T09:54:42.640Z,4.13
2018-04-11T09:57:11.804Z,4.43
2018-04-11T09:59:40.207Z,4.57
2018-04-11T10:02:09.382Z,4.57
2018-04-11T10:04:37.960Z,3.77
2018-04-11T10:07:06.355Z,7.37
2018-04-11T10:09:35.735Z,5.10
2018-04-11T10:12:04.139Z,4.90
2018-04-11T10:14:32.525Z,4.90
2018-04-11T10:17:00.925Z,5.10
2018-04-11T10:19:30.077Z,3.17
2018-04-11T10:21:58.492Z,4.87
2018-04-11T10:24:27.689Z,4.20
2018-04-11T10:26:56.860Z,5.27
2018-04-11T10:29:25.241Z,4.60
2018-04-11T10:31:53.662Z,3.90
2018-04-11T10:34:22.061Z,4.53
2018-04-11T10:36:50.452Z,5.97
2018-04-11T10:39:18.864Z,5.40
2018-04-11T10:41:47.309Z,4.40
2018-04-11T10:44:15.893Z,4.80
2018-04-11T10:46:44.268Z,4.90
2018-04-11T10:49:12.751Z,4.80
2018-04-11T10:51:41.164Z,4.30
2018-04-11T10:54:09.546Z,6.27
2018-04-11T10:56:37.960Z,5.23
2018-04-11T10:59:06.381Z,4.77
2018-04-11T11:01:34.805Z,5.40
2018-04-11T11:04:03.974Z,5.47
2018-04-11T11:06:32.357Z,4.20
2018-04-11T11:09:00.766Z,5.27
2018-04-11T11:11:29.141Z,4.50
2018-04-11T11:13:58.312Z,4.13
2018-04-11T11:16:36.265Z,4.30
2018-04-11T11:19:04.712Z,6.23
2018-04-11T11:21:33.862Z,5.50
2018-04-11T11:24:02.241Z,5.13
2018-04-11T11:26:30.652Z,5.10
2018-04-11T11:28:59.812Z,5.30
2018-04-11T11:31:28.224Z,5.53
2018-04-11T11:33:56.629Z,5.60
2018-04-11T11:36:25.456Z,5.50
2018-04-11T11:38:53.944Z,6.17
2018-04-11T11:41:22.325Z,7.40
2018-04-11T11:43:50.732Z,10.10
2018-04-11T11:46:20.616Z,4.90
2018-04-11T11:48:49.026Z,4.20
2018-04-11T11:51:18.169Z,4.00
2018-04-11T11:53:46.605Z,4.70
2018-04-11T11:56:15.757Z,5.40
2018-04-11T11:58:44.152Z,5.23
2018-04-11T12:01:12.566Z,4.47
2018-04-11T12:03:41.748Z,4.80
2018-04-11T12:06:10.241Z,4.10
2018-04-11T12:08:39.392Z,4.37
2018-04-11T12:11:07.777Z,4.80
2018-04-11T12:13:36.193Z,4.50
2018-04-11T12:16:05.352Z,4.67
2018-04-11T12:18:33.798Z,3.83
2018-04-11T12:21:02.209Z,3.90
2018-04-11T12:23:30.581Z,4.03
2018-04-11T12:25:59.063Z,4.37
2018-04-11T12:28:27.453Z,4.60
2018-04-11T12:30:56.050Z,4.43
2018-04-11T12:33:24.507Z,4.27
2018-04-11T12:35:52.969Z,20.20
2018-04-11T12:38:21.366Z,5.60
2018-04-11T12:40:49.741Z,4.23
2018-04-11T12:43:18.150Z,4.73
2018-04-11T12:45:46.533Z,4.87
2018-04-11T12:48:15.285Z,8.73
2018-04-11T12:50:43.664Z,4.60
2018-04-11T12:53:12.053Z,5.13
2018-04-11T12:55:40.507Z,4.00
2018-04-11T12:58:09.658Z,4.87
2018-04-11T13:00:38.061Z,4.80
2018-04-11T13:03:07.196Z,5.10
2018-04-11T13:05:35.616Z,6.23
2018-04-11T13:08:04.004Z,4.37
2018-04-11T13:10:33.150Z,4.90
2018-04-11T13:13:01.547Z,5.40
2018-04-11T13:15:29.925Z,5.70
2018-04-11T13:17:58.346Z,6.00
2018-04-11T13:20:26.726Z,4.87
2018-04-11T13:22:56.280Z,5.43
2018-04-11T13:25:24.653Z,4.43
2018-04-11T13:27:53.080Z,6.10
2018-04-11T13:30:22.258Z,5.50
2018-04-11T13:32:50.668Z,9.73
2018-04-11T13:35:19.074Z,5.43
2018-04-11T13:37:47.457Z,5.63
2018-04-11T13:40:16.248Z,5.37
2018-04-11T13:42:44.647Z,4.80
2018-04-11T13:45:13.022Z,4.27
2018-04-11T13:47:41.420Z,3.80
2018-04-11T13:50:09.802Z,4.67
2018-04-11T13:52:38.975Z,4.43
2018-04-11T13:55:07.353Z,4.40
2018-04-11T13:57:35.920Z,5.17
2018-04-11T14:00:04.300Z,4.37
2018-04-11T14:02:32.689Z,5.03
2018-04-11T14:05:01.125Z,4.93
2018-04-11T14:07:29.505Z,4.50
2018-04-11T14:09:57.986Z,6.17
2018-04-11T14:12:26.368Z,8.17
2018-04-11T14:14:54.829Z,8.80
2018-04-11T14:17:24.008Z,5.50
2018-04-11T14:19:52.486Z,6.47
2018-04-11T14:22:21.857Z,6.13
2018-04-11T14:24:50.250Z,6.83
2018-04-11T14:27:18.669Z,10.30
2018-04-11T14:29:47.828Z,8.00
2018-04-11T14:32:16.607Z,6.80
2018-04-11T14:34:44.989Z,6.87
2018-04-11T14:37:13.378Z,5.70
2018-04-11T14:39:41.836Z,5.73
2018-04-11T14:42:10.233Z,5.00
2018-04-11T14:44:38.663Z,5.63
2018-04-11T14:47:07.057Z,5.57
2018-04-11T14:49:35.509Z,5.20
2018-04-11T14:52:04.673Z,4.93
2018-04-11T14:54:33.215Z,5.27
2018-04-11T14:57:01.828Z,5.57
2018-04-11T14:59:31.028Z,5.43
2018-04-11T15:01:59.689Z,6.50
2018-04-11T15:04:28.095Z,5.60
2018-04-11T15:06:56.670Z,6.87
2018-04-11T15:09:25.064Z,8.20
2018-04-11T15:11:53.465Z,6.60
2018-04-11T15:14:22.630Z,5.50
2018-04-11T15:16:51.097Z,5.80
2018-04-11T15:19:19.736Z,6.07
2018-04-11T15:21:48.142Z,6.13
2018-04-11T15:24:16.564Z,7.00
2018-04-11T15:26:45.077Z,7.90
2018-04-11T15:29:14.228Z,7.37
2018-04-11T15:31:42.636Z,8.17
2018-04-11T15:34:11.805Z,6.83
2018-04-11T15:36:40.231Z,8.67
2018-04-11T15:39:08.628Z,7.67
2018-04-11T15:41:37.261Z,8.90
2018-04-11T15:44:05.769Z,8.10
2018-04-11T15:46:39.423Z,9.73
2018-04-11T15:49:08.636Z,8.90
2018-04-11T15:51:37.149Z,9.20
2018-04-11T15:54:06.400Z,8.00
2018-04-11T15:56:34.940Z,9.80
2018-04-11T15:59:03.390Z,9.20
2018-04-11T16:01:33.582Z,9.00
2018-04-11T16:04:02.062Z,8.20
2018-04-11T16:06:31.430Z,9.93
2018-04-11T16:08:59.821Z,9.90
2018-04-11T16:11:28.265Z,9.00
2018-04-11T16:13:57.438Z,9.97
2018-04-11T16:16:25.853Z,10.50
2018-04-11T16:18:54.556Z,10.10
2018-04-11T16:21:24.126Z,9.20
2018-04-11T16:23:53.393Z,9.40
2018-04-11T16:26:22.175Z,9.40
2018-04-11T16:29:16.403Z,10.23
2018-04-11T16:31:56.757Z,9.27
2018-04-11T16:37:24.084Z,9.03
2018-04-11T16:39:52.992Z,11.37
2018-04-11T16:42:25.967Z,8.57
2018-04-11T16:44:58.476Z,9.33
2018-04-11T16:47:30.585Z,9.97
2018-04-11T16:50:04.917Z,10.20
2018-04-11T16:52:36.047Z,9.90
2018-04-11T16:55:06.684Z,9.53
2018-04-11T16:57:35.880Z,10.13
2018-04-11T17:00:04.305Z,10.80
2018-04-11T17:02:32.964Z,9.13
2018-04-11T17:05:01.398Z,9.00
2018-04-11T17:07:31.497Z,9.40
2018-04-11T17:10:00.729Z,10.10
2018-04-11T17:12:29.129Z,9.30
2018-04-11T17:14:57.619Z,9.30
2018-04-11T17:17:26.030Z,9.80
2018-04-11T17:19:54.455Z,14.90
2018-04-11T17:22:40.754Z,11.13
2018-04-11T17:25:27.143Z,18.50
2018-04-11T17:28:13.439Z,12.37
2018-04-11T17:30:57.833Z,11.80
2018-04-11T17:33:27.164Z,12.90
2018-04-11T17:35:56.480Z,11.33
2018-04-11T17:38:25.779Z,10.93
2018-04-11T17:40:55.080Z,11.13
2018-04-11T17:43:25.663Z,11.23
2018-04-11T17:45:54.125Z,10.63
2018-04-11T17:48:22.522Z,12.20
2018-04-11T17:50:50.959Z,12.27
2018-04-11T17:53:19.360Z,12.00
2018-04-11T17:55:47.863Z,11.87
2018-04-11T17:58:16.274Z,11.77
2018-04-11T18:00:45.661Z,13.57
2018-04-11T18:03:14.052Z,11.43
2018-04-11T18:05:42.436Z,12.23
2018-04-11T18:08:11.636Z,12.05
2018-04-11T18:10:40.980Z,12.30
2018-04-11T18:13:09.400Z,13.38
2018-04-11T18:15:37.802Z,12.23
2018-04-11T18:18:07.125Z,12.27
2018-04-11T18:20:35.527Z,15.23
2018-04-11T18:23:03.938Z,15.02
2018-04-11T18:25:32.357Z,12.88
2018-04-11T18:28:00.813Z,12.07
2018-04-11T18:30:30.010Z,12.35
2018-04-11T18:32:59.201Z,11.48
2018-04-11T18:35:28.462Z,12.23
2018-04-11T18:37:57.068Z,13.60
2018-04-11T18:40:25.480Z,12.07
2018-04-11T18:42:54.003Z,13.82
2018-04-11T18:45:22.393Z,12.20
2018-04-11T18:47:50.827Z,13.35
2018-04-11T18:50:19.414Z,13.30
2018-04-11T18:52:47.994Z,13.38
2018-04-11T18:55:16.489Z,13.00
2018-04-11T18:57:45.062Z,13.32
2018-04-11T19:00:13.678Z,13.20
2018-04-11T19:02:42.374Z,12.98
2018-04-11T19:05:10.823Z,13.05
2018-04-11T19:07:39.742Z,13.93
2018-04-11T19:10:08.436Z,11.73
2018-04-11T19:12:36.865Z,12.40
2018-04-11T19:15:05.364Z,12.35
2018-04-11T19:17:33.802Z,11.80
2018-04-11T19:20:03.247Z,12.82
2018-04-11T19:22:31.712Z,13.35
2018-04-11T19:25:00.157Z,12.85
2018-04-11T19:27:29.014Z,12.02
2018-04-11T19:29:57.905Z,13.20
2018-04-11T19:32:26.597Z,11.68
2018-04-11T19:34:55.359Z,13.07
2018-04-11T19:37:23.792Z,13.25
2018-04-11T19:39:52.996Z,13.38
2018-04-11T19:42:22.194Z,13.60
2018-04-11T19:44:51.408Z,12.32
2018-04-11T19:47:20.484Z,12.57
2018-04-11T19:49:49.700Z,13.30
2018-04-11T19:52:18.228Z,11.88
2018-04-11T19:54:48.140Z,11.90
2018-04-11T19:57:16.636Z,11.45
2018-04-11T19:59:45.203Z,11.60
2018-04-11T20:02:13.824Z,17.10
2018-04-11T20:04:42.984Z,13.23
2018-04-11T20:07:11.411Z,11.82
2018-04-11T20:09:40.653Z,11.50
2018-04-11T20:12:09.092Z,11.05
2018-04-11T20:14:38.282Z,11.82
2018-04-11T20:17:07.856Z,10.90
2018-04-11T20:19:36.419Z,11.85
2018-04-11T20:22:04.907Z,11.43
2018-04-11T20:24:33.335Z,11.00
2018-04-11T20:27:02.513Z,11.73
2018-04-11T20:29:30.932Z,11.65
2018-04-11T20:31:59.369Z,11.85
2018-04-11T20:34:28.545Z,11.75
2018-04-11T20:36:57.333Z,12.45
2018-04-11T20:39:25.806Z,10.98
2018-04-11T20:41:54.213Z,10.90
2018-04-11T20:44:22.661Z,12.35
2018-04-11T20:46:51.072Z,12.30
2018-04-11T20:49:19.508Z,12.02
2018-04-11T20:51:47.906Z,12.05
2018-04-11T20:54:16.353Z,10.57
2018-04-11T20:56:44.746Z,11.45
2018-04-11T20:59:13.165Z,9.75
2018-04-11T21:01:41.589Z,10.70
2018-04-11T21:04:09.980Z,11.30
2018-04-11T21:06:38.413Z,10.93
2018-04-11T21:09:06.849Z,11.70
2018-04-11T21:11:35.407Z,11.18
2018-04-11T21:14:03.800Z,12.52
2018-04-11T21:16:32.194Z,13.70
2018-04-11T21:19:01.048Z,12.00
2018-04-11T21:21:29.437Z,13.10
2018-04-11T21:23:57.869Z,11.70
2018-04-11T21:26:26.305Z,13.43
2018-04-11T21:28:55.009Z,11.25
2018-04-11T21:31:23.386Z,11.75
2018-04-11T21:33:51.781Z,11.75
2018-04-11T21:36:20.224Z,18.62
2018-04-11T21:38:48.619Z,12.82
2018-04-11T21:41:17.049Z,11.05
2018-04-11T21:43:46.203Z,10.65
2018-04-11T21:46:14.885Z,12.68
2018-04-11T21:48:43.281Z,11.80
2018-04-11T21:51:11.691Z,11.98
2018-04-11T21:53:40.870Z,11.70
2018-04-11T21:56:09.265Z,12.48
2018-04-11T21:58:42.978Z,11.68
2018-04-11T22:01:11.381Z,12.20
2018-04-11T22:03:40.111Z,11.55
2018-04-11T22:06:08.508Z,11.02
2018-04-11T22:08:36.897Z,11.55
2018-04-11T22:11:06.097Z,11.63
2018-04-11T22:13:35.244Z,12.20
2018-04-11T22:16:03.668Z,11.80
2018-04-11T22:18:32.837Z,13.07
2018-04-11T22:21:01.510Z,12.10
2018-04-11T22:23:29.942Z,11.65
2018-04-11T22:25:59.097Z,11.57
2018-04-11T22:28:27.517Z,11.15
2018-04-11T22:30:56.672Z,14.27
2018-04-11T22:33:26.765Z,12.25
2018-04-11T22:35:55.667Z,14.57
2018-04-11T22:38:24.373Z,12.45
2018-04-11T22:40:52.769Z,11.80
2018-04-11T22:43:25.399Z,11.00
2018-04-11T22:45:53.800Z,12.70
2018-04-11T22:48:22.197Z,12.43
2018-04-11T22:50:51.447Z,11.75
2018-04-11T22:53:20.699Z,12.65
2018-04-11T22:55:49.426Z,12.20
2018-04-11T22:58:17.815Z,10.73
2018-04-11T23:00:46.521Z,12.13
2018-04-11T23:03:14.902Z,10.02
2018-04-11T23:05:43.280Z,10.63
2018-04-11T23:08:11.680Z,9.90
2018-04-11T23:10:40.081Z,8.75
2018-04-11T23:13:09.892Z,10.23
2018-04-11T23:15:39.066Z,10.52
2018-04-11T23:18:07.517Z,9.50
2018-04-11T23:20:35.916Z,9.25
2018-04-11T23:23:04.301Z,9.38
2018-04-11T23:25:34.245Z,8.82
2018-04-11T23:28:03.393Z,8.57
2018-04-11T23:30:31.797Z,8.45
2018-04-11T23:33:00.177Z,9.05
2018-04-11T23:35:28.610Z,8.93
2018-04-11T23:38:07.512Z,9.35
2018-04-11T23:40:36.064Z,7.72
2018-04-11T23:43:05.457Z,9.18
2018-04-11T23:45:33.849Z,9.60
2018-04-11T23:48:02.261Z,8.10
2018-04-11T23:50:30.639Z,8.40
2018-04-11T23:52:59.053Z,9.02
2018-04-11T23:55:28.530Z,8.40
2018-04-11T23:57:57.134Z,7.50
